Time;durP1;ratioP1;P1;durP2;ratioP2;P2;SDS_P1;SDS_P2;PMS_P1;PMS_P2;Temp;Humidity;BMP_temperature;BMP_pressure;BME280_temperature;BME280_humidity;BME280_pressure;Samples;Min_cycle;Max_cycle;Signal;HPM_P1;HPM_P2
2022/02/19 00:00:50;;;;;;;8.27;2.10;;;9.10;1.00;9.50;99592.00;;;;5024896;28;20572;-83
2022/02/19 00:03:21;;;;;;;7.87;3.10;;;9.10;1.00;9.50;99617.00;;;;5026797;28;20460;-82
2022/02/19 00:05:49;;;;;;;8.80;2.13;;;9.00;1.00;9.40;99608.00;;;;5024870;28;20481;-83
2022/02/19 00:08:18;;;;;;;18.30;2.43;;;9.00;1.00;9.40;99632.00;;;;5012839;28;20497;-83
2022/02/19 00:10:46;;;;;;;13.90;2.33;;;9.00;1.00;9.50;99622.00;;;;5036910;28;20565;-79
2022/02/19 00:13:15;;;;;;;15.50;3.33;;;9.00;1.00;9.30;99632.00;;;;5025119;28;20484;-82
2022/02/19 00:15:44;;;;;;;7.30;2.10;;;9.00;1.00;9.40;99640.00;;;;5033322;28;20555;-83
2022/02/19 00:18:12;;;;;;;6.57;2.43;;;9.30;1.00;9.40;99645.00;;;;5037632;28;20458;-83
2022/02/19 00:20:43;;;;;;;8.47;2.17;;;8.90;1.00;9.40;99644.00;;;;5036144;28;20561;-81
2022/02/19 00:23:13;;;;;;;10.13;2.80;;;9.30;1.00;9.30;99641.00;;;;5037553;28;20503;-85
2022/02/19 00:25:41;;;;;;;8.47;2.47;;;8.90;1.00;9.30;99645.00;;;;5021701;28;20483;-84
2022/02/19 00:28:10;;;;;;;8.30;2.93;;;8.90;1.00;9.30;99636.00;;;;5016839;28;20592;-84
2022/02/19 00:30:38;;;;;;;8.87;2.97;;;8.80;1.00;9.20;99634.00;;;;5037994;28;20471;-80
2022/02/19 00:33:07;;;;;;;10.07;2.67;;;8.80;1.00;9.30;99640.00;;;;5020582;28;20468;-82
2022/02/19 00:35:36;;;;;;;9.30;2.73;;;8.80;1.00;9.30;99648.00;;;;5010470;28;20476;-82
2022/02/19 00:38:06;;;;;;;6.30;1.60;;;8.80;1.00;9.30;99656.00;;;;5012470;28;20466;-82
2022/02/19 00:40:36;;;;;;;7.20;2.70;;;8.80;1.00;9.20;99632.00;;;;5017350;28;20472;-82
2022/02/19 00:43:06;;;;;;;7.30;1.97;;;8.90;1.00;9.20;99403.00;;;;5016318;28;20544;-83
2022/02/19 00:45:34;;;;;;;10.93;2.93;;;8.80;1.00;9.20;99696.00;;;;5015544;28;20484;-81
2022/02/19 00:48:04;;;;;;;12.10;2.53;;;8.80;1.00;9.20;99711.00;;;;5031174;28;20458;-84
2022/02/19 00:50:33;;;;;;;6.60;2.20;;;8.80;1.00;9.20;99694.00;;;;5010082;28;20531;-80
2022/02/19 00:53:02;;;;;;;5.93;1.93;;;8.80;1.00;9.10;99712.00;;;;5013751;28;20458;-82
2022/02/19 00:55:31;;;;;;;6.10;2.10;;;8.70;1.00;9.10;99717.00;;;;5014776;28;20529;-81
2022/02/19 00:58:00;;;;;;;4.93;1.73;;;8.70;1.00;8.90;99767.00;;;;5015966;28;20989;-81
2022/02/19 01:00:29;;;;;;;7.30;2.40;;;8.70;1.00;8.40;99727.00;;;;5021221;28;20445;-82
2022/02/19 01:03:19;;;;;;;10.03;2.90;;;8.00;1.00;8.10;99734.00;;;;5015735;28;20464;-83
2022/02/19 01:05:47;;;;;;;9.53;2.40;;;7.70;1.00;8.00;99761.00;;;;5032162;28;20987;-82
2022/02/19 01:08:16;;;;;;;10.60;2.20;;;7.60;1.00;7.90;99769.00;;;;5013235;28;20463;-83
2022/02/19 01:10:48;;;;;;;10.67;2.90;;;7.50;1.00;8.10;99784.00;;;;5028566;28;22201;-84
2022/02/19 01:13:17;;;;;;;7.90;1.80;;;7.60;1.00;8.10;99801.00;;;;5027986;28;20492;-82
2022/02/19 01:15:45;;;;;;;8.07;2.23;;;7.60;1.00;8.20;99786.00;;;;5034715;28;21411;-83
2022/02/19 01:18:14;;;;;;;12.67;2.77;;;7.70;1.00;8.30;99778.00;;;;5018787;28;20493;-83
2022/02/19 01:20:44;;;;;;;11.17;2.80;;;8.00;1.00;8.40;99807.00;;;;5018842;28;20478;-81
2022/02/19 01:23:14;;;;;;;7.70;2.40;;;7.90;1.00;8.30;99760.00;;;;5037258;28;20453;-81
2022/02/19 01:25:43;;;;;;;5.40;2.30;;;7.90;1.00;8.10;99779.00;;;;5021848;28;20474;-82
2022/02/19 01:28:12;;;;;;;5.40;1.83;;;7.70;1.00;7.90;99791.00;;;;5017203;28;20554;-81
2022/02/19 01:30:41;;;;;;;8.10;2.40;;;7.50;1.00;7.80;99809.00;;;;5016827;28;20466;-82
2022/02/19 01:33:10;;;;;;;6.23;1.70;;;7.40;1.00;7.80;99809.00;;;;5034675;28;20513;-82
2022/02/19 01:35:38;;;;;;;5.27;2.30;;;7.40;1.00;7.90;99812.00;;;;5012559;28;20481;-83
2022/02/19 01:38:07;;;;;;;9.57;3.00;;;7.40;1.00;8.00;99821.00;;;;5033247;28;21123;-83
2022/02/19 01:40:36;;;;;;;12.73;2.47;;;7.50;1.00;8.00;99828.00;;;;5021837;28;20469;-84
2022/02/19 01:43:04;;;;;;;9.57;2.53;;;7.50;1.00;8.10;99831.00;;;;5036816;28;20465;-83
2022/02/19 01:45:35;;;;;;;12.63;2.53;;;7.60;1.00;8.20;99853.00;;;;5034208;28;20473;-83
2022/02/19 01:48:04;;;;;;;5.47;1.80;;;7.80;1.00;8.30;99837.00;;;;5025687;28;20453;-81
2022/02/19 01:50:33;;;;;;;7.87;2.03;;;7.80;1.00;8.20;99851.00;;;;5037946;28;20505;-81
2022/02/19 01:53:02;;;;;;;9.27;2.83;;;7.70;1.00;8.30;99859.00;;;;5034687;28;20454;-83
2022/02/19 01:55:40;;;;;;;9.17;2.87;;;7.70;1.00;8.30;99850.00;;;;5019726;28;20467;-84
2022/02/19 01:58:27;;;;;;;8.57;2.50;;;7.80;1.00;8.30;99848.00;;;;5032092;28;20449;-82
2022/02/19 02:00:59;;;;;;;6.70;2.03;;;7.80;1.00;8.30;99881.00;;;;5021808;28;21073;-84
2022/02/19 02:03:54;;;;;;;8.20;2.77;;;7.80;1.00;8.30;99874.00;;;;5002236;28;20967;-83
2022/02/19 02:06:30;;;;;;;8.17;1.60;;;7.90;1.00;8.30;99863.00;;;;5012778;28;20481;-82
2022/02/19 02:09:02;;;;;;;8.70;2.47;;;8.00;1.00;8.40;99857.00;;;;5013335;28;20548;-82
2022/02/19 02:11:36;;;;;;;6.73;1.90;;;7.90;1.00;8.30;99827.00;;;;5017256;28;21037;-82
2022/02/19 02:14:08;;;;;;;6.80;2.00;;;7.80;1.00;8.20;99841.00;;;;5043432;28;20453;-80
2022/02/19 02:16:58;;;;;;;6.60;1.60;;;7.70;1.00;8.10;99850.00;;;;5030225;28;20464;-82
2022/02/19 02:19:29;;;;;;;9.47;2.40;;;7.60;1.00;8.10;99847.00;;;;5039613;28;21724;-81
2022/02/19 02:22:22;;;;;;;8.70;1.93;;;7.50;1.00;7.90;99835.00;;;;5023092;28;21002;-82
2022/02/19 02:24:51;;;;;;;7.53;2.10;;;7.40;1.00;7.90;99845.00;;;;5022466;28;20536;-82
2022/02/19 02:27:41;;;;;;;7.23;1.93;;;7.40;1.00;7.80;99869.00;;;;5027889;28;20485;-80
2022/02/19 02:30:12;;;;;;;5.73;2.00;;;7.30;1.00;7.90;99858.00;;;;5014791;28;20508;-82
2022/02/19 02:32:47;;;;;;;10.00;2.10;;;7.30;1.00;7.80;99873.00;;;;5021684;28;20535;-81
2022/02/19 02:35:17;;;;;;;7.70;2.00;;;7.70;1.00;7.90;99888.00;;;;5018434;28;20553;-84
2022/02/19 02:37:49;;;;;;;9.30;2.47;;;7.40;1.00;7.90;99879.00;;;;5006926;28;20460;-82
2022/02/19 02:40:18;;;;;;;11.17;2.30;;;7.50;1.00;8.10;99853.00;;;;5012170;28;20460;-82
2022/02/19 02:42:46;;;;;;;7.10;2.17;;;7.50;1.00;8.10;99859.00;;;;5033805;28;20781;-83
2022/02/19 02:45:16;;;;;;;9.50;1.90;;;7.60;1.00;8.10;99880.00;;;;5018730;28;20533;-81
2022/02/19 02:48:07;;;;;;;7.03;2.00;;;7.70;1.00;8.20;99870.00;;;;5012493;28;20445;-83
2022/02/19 02:50:36;;;;;;;5.37;1.87;;;7.80;1.00;8.30;99898.00;;;;5041689;28;20471;-82
2022/02/19 02:53:26;;;;;;;5.80;1.90;;;7.90;1.00;8.30;99892.00;;;;5036062;28;21384;-83
2022/02/19 02:55:55;;;;;;;6.13;1.47;;;7.90;1.00;8.20;99946.00;;;;5017602;28;20449;-83
2022/02/19 02:58:24;;;;;;;6.13;1.73;;;7.80;1.00;7.60;99942.00;;;;5025185;28;20464;-81
2022/02/19 03:00:56;;;;;;;5.83;1.53;;;7.50;1.00;7.20;99951.00;;;;5039737;28;20481;-82
2022/02/19 03:03:24;;;;;;;6.50;2.87;;;7.00;1.00;6.90;99967.00;;;;5013511;28;20449;-81
2022/02/19 03:05:53;;;;;;;9.67;1.93;;;6.70;1.00;6.50;99973.00;;;;5025816;28;20486;-83
2022/02/19 03:08:22;;;;;;;5.97;2.17;;;6.40;1.00;6.40;99961.00;;;;5007719;28;20461;-82
2022/02/19 03:10:52;;;;;;;7.50;2.23;;;6.10;1.00;6.20;99944.00;;;;5011564;28;21480;-83
2022/02/19 03:13:20;;;;;;;6.57;2.13;;;5.90;1.00;6.00;99926.00;;;;5013423;28;20461;-83
2022/02/19 03:15:49;;;;;;;7.60;1.73;;;5.70;1.00;5.90;99947.00;;;;5014914;28;20453;-83
2022/02/19 03:18:18;;;;;;;7.83;1.97;;;5.50;1.00;5.90;99919.00;;;;5035161;28;20453;-83
2022/02/19 03:20:47;;;;;;;8.00;1.97;;;5.50;1.00;6.00;99944.00;;;;5014461;28;20527;-83
2022/02/19 03:23:16;;;;;;;6.50;2.07;;;5.50;1.00;6.10;99949.00;;;;5028864;28;20525;-82
2022/02/19 03:25:45;;;;;;;5.37;2.47;;;5.60;1.00;6.20;99935.00;;;;5029029;28;20659;-85
2022/02/19 03:28:15;;;;;;;5.17;1.60;;;5.70;1.00;6.20;99927.00;;;;5031088;28;20442;-84
2022/02/19 03:30:45;;;;;;;10.50;2.30;;;5.90;1.00;6.40;99959.00;;;;5007065;28;20519;-82
2022/02/19 03:33:33;;;;;;;10.03;1.90;;;6.00;1.00;6.50;99992.00;;;;5011171;28;20449;-83
2022/02/19 03:36:04;;;;;;;6.73;1.83;;;6.20;1.00;6.50;99975.00;;;;5030144;28;20553;-82
2022/02/19 03:38:32;;;;;;;5.20;2.10;;;6.10;1.00;6.20;99958.00;;;;5024803;28;20462;-83
2022/02/19 03:41:05;;;;;;;7.33;2.00;;;5.90;1.00;6.00;99962.00;;;;5008709;28;20480;-84
2022/02/19 03:43:35;;;;;;;7.43;2.10;;;5.90;1.00;5.90;99956.00;;;;5010037;28;20450;-84
2022/02/19 03:46:06;;;;;;;7.63;2.43;;;5.50;1.00;5.90;99966.00;;;;5019692;28;20488;-83
2022/02/19 03:48:56;;;;;;;9.50;2.07;;;5.50;1.00;5.90;99991.00;;;;5025074;28;20819;-83
2022/02/19 03:51:26;;;;;;;5.80;1.43;;;5.60;1.00;5.90;99984.00;;;;5021275;28;20476;-83
2022/02/19 03:53:56;;;;;;;9.87;1.87;;;5.50;1.00;5.80;99991.00;;;;5004209;28;20456;-84
2022/02/19 03:56:28;;;;;;;5.70;1.80;;;5.50;1.00;5.80;99999.00;;;;5021977;28;20462;-83
2022/02/19 03:59:06;;;;;;;5.87;1.90;;;5.40;1.00;5.80;100009.00;;;;5022825;28;20553;-81
2022/02/19 04:01:35;;;;;;;6.57;1.70;;;5.50;1.00;5.80;100006.00;;;;5027765;28;20480;-81
2022/02/19 04:04:11;;;;;;;6.00;1.57;;;5.50;1.00;5.90;100002.00;;;;5032388;28;20449;-82
2022/02/19 04:06:40;;;;;;;7.20;2.80;;;5.60;1.00;6.00;100029.00;;;;5036796;28;20468;-82
2022/02/19 04:09:09;;;;;;;6.00;1.83;;;5.60;1.00;6.10;100021.00;;;;5031023;28;20506;-82
2022/02/19 04:11:42;;;;;;;10.70;2.10;;;5.70;1.00;6.20;100045.00;;;;5035102;28;20468;-81
2022/02/19 04:14:14;;;;;;;9.10;2.10;;;5.90;1.00;6.30;100051.00;;;;5035637;28;20514;-81
2022/02/19 04:16:49;;;;;;;8.37;2.50;;;6.00;1.00;6.20;100060.00;;;;5044365;28;20528;-84
2022/02/19 04:19:18;;;;;;;4.93;1.70;;;5.90;1.00;6.00;100064.00;;;;5023142;28;20466;-83
2022/02/19 04:21:46;;;;;;;5.50;1.60;;;5.70;1.00;6.00;100059.00;;;;5034785;28;20485;-84
2022/02/19 04:24:20;;;;;;;4.27;1.60;;;5.60;1.00;5.80;100073.00;;;;5040145;28;20484;-84
2022/02/19 04:26:55;;;;;;;6.57;1.40;;;5.50;1.00;5.80;100073.00;;;;5017477;28;20850;-83
2022/02/19 04:29:25;;;;;;;4.37;1.37;;;5.40;1.00;5.80;100013.00;;;;5018393;28;20500;-83
2022/02/19 04:31:58;;;;;;;5.40;1.57;;;5.60;1.00;5.80;100052.00;;;;5013935;28;20476;-83
2022/02/19 04:34:36;;;;;;;6.00;2.00;;;5.30;1.00;5.70;100046.00;;;;5023319;28;20840;-83
2022/02/19 04:37:05;;;;;;;10.23;2.00;;;5.50;1.00;5.70;100049.00;;;;5012016;28;20548;-84
2022/02/19 04:39:38;;;;;;;6.00;1.20;;;5.30;1.00;5.70;100060.00;;;;5028613;28;21018;-83
2022/02/19 04:42:13;;;;;;;5.00;1.60;;;5.30;1.00;5.70;100079.00;;;;5031248;28;20492;-82
2022/02/19 04:44:47;;;;;;;6.30;2.17;;;5.20;1.00;5.70;100075.00;;;;5018873;28;20466;-83
2022/02/19 04:47:17;;;;;;;5.93;1.90;;;5.20;1.00;5.60;100114.00;;;;5035308;28;20596;-83
2022/02/19 04:49:47;;;;;;;6.10;1.93;;;5.30;1.00;5.80;100115.00;;;;5029658;28;20462;-82
2022/02/19 04:52:16;;;;;;;9.77;1.83;;;5.30;1.00;5.70;100100.00;;;;5028320;28;21188;-83
2022/02/19 04:54:45;;;;;;;5.03;1.80;;;5.30;1.00;5.80;100074.00;;;;5024522;28;20493;-84
2022/02/19 04:57:19;;;;;;;6.30;1.70;;;5.20;1.00;5.80;100123.00;;;;5011353;28;20460;-83
2022/02/19 04:59:49;;;;;;;6.77;2.00;;;5.20;1.00;5.80;100129.00;;;;5010956;28;20461;-82
2022/02/19 05:02:23;;;;;;;7.73;1.67;;;5.20;1.00;5.80;100120.00;;;;5012939;28;20479;-83
2022/02/19 05:04:52;;;;;;;7.90;1.63;;;5.30;1.00;5.80;100090.00;;;;4987802;28;20489;-83
2022/02/19 05:07:26;;;;;;;10.70;1.90;;;5.70;1.00;5.80;100108.00;;;;5005424;28;21033;-83
2022/02/19 05:09:55;;;;;;;5.80;2.10;;;5.30;1.00;5.80;100124.00;;;;5007099;28;20458;-84
2022/02/19 05:12:28;;;;;;;5.77;1.53;;;5.20;1.00;5.80;100109.00;;;;5007068;28;20604;-83
2022/02/19 05:14:59;;;;;;;8.97;1.73;;;5.20;1.00;5.80;100130.00;;;;5010660;28;20452;-82
2022/02/19 05:17:33;;;;;;;5.50;1.77;;;5.20;1.00;5.80;100135.00;;;;5011176;28;20461;-82
2022/02/19 05:20:08;;;;;;;8.40;1.73;;;5.30;1.00;5.80;100149.00;;;;5012031;28;20454;-82
2022/02/19 05:22:42;;;;;;;7.60;1.70;;;5.20;1.00;5.80;100150.00;;;;5029239;28;20512;-82
2022/02/19 05:25:10;;;;;;;6.73;1.83;;;5.20;1.00;5.80;100154.00;;;;5032244;28;20453;-83
2022/02/19 05:27:39;;;;;;;9.70;2.17;;;5.30;1.00;5.90;100149.00;;;;5026091;28;20484;-83
2022/02/19 05:30:12;;;;;;;7.40;2.67;;;5.30;1.00;5.90;100161.00;;;;5010049;28;20486;-83
2022/02/19 05:33:00;;;;;;;5.40;1.90;;;5.40;1.00;6.10;100154.00;;;;5011987;28;20458;-82
2022/02/19 05:35:32;;;;;;;10.40;2.10;;;5.50;1.00;6.20;100155.00;;;;5007686;28;20458;-83
2022/02/19 05:38:01;;;;;;;11.40;2.10;;;5.70;1.00;6.30;100170.00;;;;5033816;28;20461;-84
2022/02/19 05:40:32;;;;;;;7.07;2.20;;;5.80;1.00;6.30;100175.00;;;;5010005;28;20577;-83
2022/02/19 05:43:05;;;;;;;8.07;2.20;;;5.90;1.00;6.40;100197.00;;;;5025349;28;20476;-82
2022/02/19 05:45:36;;;;;;;7.63;2.23;;;5.90;1.00;6.40;100174.00;;;;5044952;28;20529;-82
2022/02/19 05:48:05;;;;;;;7.90;2.40;;;6.00;1.00;6.40;100181.00;;;;5025370;28;20932;-83
2022/02/19 05:50:41;;;;;;;8.97;2.20;;;6.00;1.00;6.40;100187.00;;;;5044075;28;20453;-82
2022/02/19 05:53:23;;;;;;;6.93;1.97;;;5.90;1.00;6.40;100181.00;;;;5026624;28;20455;-83
2022/02/19 05:55:53;;;;;;;12.97;2.70;;;5.90;1.00;6.40;100194.00;;;;5024070;28;20453;-82
2022/02/19 05:58:22;;;;;;;8.43;1.60;;;5.90;1.00;6.30;100200.00;;;;5015642;28;20450;-82
2022/02/19 06:01:03;;;;;;;8.37;2.17;;;5.80;1.00;6.20;100132.00;;;;5029908;28;20477;-82
2022/02/19 06:03:31;;;;;;;5.73;1.80;;;5.80;1.00;6.30;100212.00;;;;5019734;28;20977;-82
2022/02/19 06:06:00;;;;;;;9.60;1.97;;;5.80;1.00;6.40;100211.00;;;;5016196;28;20457;-83
2022/02/19 06:08:29;;;;;;;8.77;1.90;;;5.90;1.00;6.40;100215.00;;;;5026859;28;20482;-83
2022/02/19 06:10:58;;;;;;;9.40;1.67;;;5.90;1.00;6.40;100227.00;;;;5041340;28;20486;-83
2022/02/19 06:13:29;;;;;;;5.70;1.90;;;5.90;1.00;6.40;100217.00;;;;5041982;28;20458;-82
2022/02/19 06:15:58;;;;;;;8.97;2.00;;;5.90;1.00;6.30;100249.00;;;;5005991;28;20488;-82
2022/02/19 06:18:33;;;;;;;6.20;1.50;;;5.90;1.00;6.30;100240.00;;;;5019794;28;20460;-83
2022/02/19 06:21:01;;;;;;;10.83;2.27;;;5.90;1.00;6.30;100228.00;;;;5008381;28;20502;-82
2022/02/19 06:23:39;;;;;;;9.70;1.90;;;5.90;1.00;6.40;100263.00;;;;5033717;28;20468;-83
2022/02/19 06:26:07;;;;;;;8.53;1.73;;;5.90;1.00;6.40;100253.00;;;;5029200;28;20519;-84
2022/02/19 06:28:49;;;;;;;6.50;2.10;;;6.00;1.00;6.40;100248.00;;;;5016515;28;20484;-84
2022/02/19 06:31:19;;;;;;;3.60;1.23;;;5.90;1.00;6.40;100273.00;;;;5031016;28;20487;-82
2022/02/19 06:33:49;;;;;;;7.57;2.13;;;5.90;1.00;6.30;100276.00;;;;5022685;28;21567;-80
2022/02/19 06:36:18;;;;;;;9.70;2.33;;;6.20;1.00;6.40;100249.00;;;;5017162;28;20934;-81
2022/02/19 06:38:47;;;;;;;6.03;2.00;;;5.90;1.00;6.40;100235.00;;;;5029872;28;20468;-81
2022/02/19 06:41:19;;;;;;;6.60;1.80;;;5.90;1.00;6.40;100269.00;;;;5005518;28;20497;-82
2022/02/19 06:44:07;;;;;;;6.17;2.27;;;5.90;1.00;6.30;100288.00;;;;5012931;28;20527;-81
2022/02/19 06:46:39;;;;;;;6.30;1.90;;;5.80;1.00;6.30;100294.00;;;;5029468;28;20490;-81
2022/02/19 06:49:08;;;;;;;7.87;2.13;;;5.90;1.00;6.40;100297.00;;;;5010139;28;20527;-82
2022/02/19 06:51:42;;;;;;;6.27;1.73;;;5.90;1.00;6.40;100290.00;;;;5010899;28;21010;-83
2022/02/19 06:54:11;;;;;;;9.40;2.20;;;5.90;1.00;6.50;100303.00;;;;5005791;28;20555;-81
2022/02/19 06:56:39;;;;;;;14.33;2.17;;;5.90;1.00;6.50;100324.00;;;;5007931;28;20458;-81
2022/02/19 06:59:10;;;;;;;8.23;2.20;;;5.90;1.00;6.40;100313.00;;;;5008050;28;20465;-83
2022/02/19 07:01:39;;;;;;;8.90;1.63;;;5.90;1.00;6.50;100333.00;;;;5012405;28;20485;-82
2022/02/19 07:04:12;;;;;;;15.70;3.20;;;5.90;1.00;6.50;100335.00;;;;5027130;28;20457;-83
2022/02/19 07:07:04;;;;;;;4.50;1.90;;;6.00;1.00;6.60;100354.00;;;;5015006;28;20457;-83
2022/02/19 07:09:33;;;;;;;6.00;1.80;;;6.00;1.00;6.60;100338.00;;;;5014123;28;20466;-82
2022/02/19 07:12:01;;;;;;;8.00;1.70;;;6.00;1.00;6.50;100342.00;;;;5011791;28;21167;-81
2022/02/19 07:14:31;;;;;;;9.07;2.23;;;6.00;1.00;6.70;100346.00;;;;5008419;28;20967;-82
2022/02/19 07:17:05;;;;;;;9.43;2.17;;;6.00;1.00;6.70;100349.00;;;;5013380;28;20476;-81
2022/02/19 07:19:38;;;;;;;7.57;1.73;;;5.80;1.00;6.70;100365.00;;;;5027896;28;20573;-82
2022/02/19 07:22:12;;;;;;;7.90;1.83;;;6.10;1.00;6.80;100353.00;;;;5004558;28;20513;-83
2022/02/19 07:24:41;;;;;;;7.40;2.10;;;6.20;1.00;6.90;100360.00;;;;5005650;28;20460;-81
2022/02/19 07:27:09;;;;;;;5.60;2.17;;;6.60;1.00;6.90;100364.00;;;;5034168;28;20469;-81
2022/02/19 07:29:38;;;;;;;5.80;2.30;;;6.30;1.00;7.00;100364.00;;;;5035606;28;20472;-81
2022/02/19 07:32:09;;;;;;;7.40;2.47;;;6.40;1.00;7.10;100346.00;;;;5032307;28;20477;-81
2022/02/19 07:34:39;;;;;;;9.67;2.33;;;6.40;1.00;7.20;100366.00;;;;5008886;28;20457;-83
2022/02/19 07:37:08;;;;;;;10.57;2.73;;;6.50;1.00;7.30;100388.00;;;;5028026;28;20464;-82
2022/02/19 07:39:37;;;;;;;7.67;2.20;;;6.60;1.00;7.30;100390.00;;;;5030623;28;20453;-80
2022/02/19 07:42:08;;;;;;;5.80;2.33;;;6.70;1.00;7.40;100395.00;;;;5034937;28;20499;-82
2022/02/19 07:44:56;;;;;;;4.63;1.87;;;6.70;1.00;7.50;100398.00;;;;5013935;28;22169;-82
2022/02/19 07:47:59;;;;;;;13.20;3.17;;;6.90;1.00;7.60;100402.00;;;;5011865;28;20525;-82
2022/02/19 07:59:48;;;;;;;7.47;1.67;;;7.00;1.00;7.80;100417.00;;;;5016848;28;20458;-81
2022/02/19 08:02:17;;;;;;;10.50;2.00;;;7.10;1.00;7.80;100423.00;;;;5018198;28;20480;-81
2022/02/19 08:04:46;;;;;;;6.80;1.97;;;7.20;1.00;7.80;100420.00;;;;5019413;28;20493;-82
2022/02/19 08:07:16;;;;;;;6.50;2.37;;;7.20;1.00;8.00;100434.00;;;;5013997;28;20458;-83
2022/02/19 08:09:45;;;;;;;8.50;2.20;;;7.40;1.00;8.00;100437.00;;;;5011265;28;20490;-80
2022/02/19 08:12:13;;;;;;;12.83;2.27;;;7.50;1.00;7.80;100447.00;;;;5030003;28;20473;-81
2022/02/19 08:14:42;;;;;;;6.73;1.93;;;7.40;1.00;8.10;100446.00;;;;5016018;28;20457;-82
2022/02/19 08:17:10;;;;;;;6.30;2.00;;;7.60;1.00;8.20;100435.00;;;;5013301;28;20490;-83
2022/02/19 08:19:39;;;;;;;6.73;2.73;;;7.60;1.00;8.00;100444.00;;;;5020024;28;21066;-81
2022/02/19 08:22:07;;;;;;;7.47;2.37;;;7.60;1.00;8.10;100454.00;;;;5028882;28;20516;-81
2022/02/19 08:24:37;;;;;;;3.20;1.63;;;7.50;1.00;8.20;100450.00;;;;5008937;28;20548;-81
2022/02/19 08:27:05;;;;;;;6.67;1.97;;;7.50;1.00;8.20;100470.00;;;;5000791;28;20456;-80
2022/02/19 08:29:34;;;;;;;6.77;2.03;;;7.60;1.00;8.30;100463.00;;;;5010551;28;21039;-80
2022/02/19 08:32:02;;;;;;;6.23;1.77;;;7.70;1.00;8.20;100466.00;;;;5015577;28;20479;-82
2022/02/19 08:34:31;;;;;;;7.80;2.80;;;7.60;1.00;8.30;100482.00;;;;5013418;28;20461;-80
2022/02/19 08:37:00;;;;;;;9.60;2.20;;;7.60;1.00;8.30;100482.00;;;;5010227;28;21342;-80
2022/02/19 08:39:28;;;;;;;5.10;1.90;;;7.70;1.00;8.50;100485.00;;;;5002991;28;20830;-82
2022/02/19 08:41:58;;;;;;;10.70;2.40;;;7.90;1.00;8.40;100477.00;;;;5015133;28;20523;-81
2022/02/19 08:44:27;;;;;;;7.20;1.87;;;7.80;1.00;8.30;100494.00;;;;5018442;28;20495;-82
2022/02/19 08:46:55;;;;;;;5.97;1.90;;;8.00;1.00;8.30;100508.00;;;;5010726;28;20450;-81
2022/02/19 08:49:25;;;;;;;7.17;1.77;;;7.60;1.00;8.30;100500.00;;;;5011143;28;20476;-80
2022/02/19 08:51:53;;;;;;;6.17;1.80;;;7.70;1.00;8.50;100521.00;;;;5009770;28;20481;-80
2022/02/19 08:54:22;;;;;;;6.83;1.90;;;7.80;1.00;8.50;100517.00;;;;5020918;28;21490;-81
2022/02/19 08:56:50;;;;;;;7.80;2.40;;;7.90;1.00;8.70;100529.00;;;;5008635;28;20448;-80
2022/02/19 08:59:21;;;;;;;10.23;2.40;;;8.10;1.00;8.70;100524.00;;;;5001573;28;20458;-82
2022/02/19 09:01:49;;;;;;;8.60;2.70;;;8.30;1.00;8.80;100510.00;;;;5013076;28;21608;-80
2022/02/19 09:04:18;;;;;;;8.40;2.00;;;8.60;1.00;8.70;100513.00;;;;5008983;28;20461;-81
2022/02/19 09:06:46;;;;;;;9.00;2.40;;;8.20;1.00;8.80;100548.00;;;;5015425;28;21238;-80
2022/02/19 09:09:15;;;;;;;5.63;2.43;;;8.20;1.00;8.90;100537.00;;;;5021638;28;20481;-83
2022/02/19 09:11:43;;;;;;;4.93;1.50;;;8.40;1.00;8.90;100554.00;;;;5013943;28;20473;-82
2022/02/19 09:14:12;;;;;;;6.70;1.63;;;8.80;1.00;9.10;100547.00;;;;5013681;28;20450;-80
2022/02/19 09:16:41;;;;;;;9.30;1.90;;;8.50;1.00;9.00;100503.00;;;;5015668;28;20485;-82
2022/02/19 09:19:11;;;;;;;9.53;1.97;;;8.70;1.00;9.10;100535.00;;;;5029096;28;20453;-82
2022/02/19 09:21:42;;;;;;;7.37;2.23;;;8.50;1.00;8.90;100560.00;;;;5027488;28;20504;-82
2022/02/19 09:24:11;;;;;;;6.70;2.07;;;8.50;1.00;9.10;100532.00;;;;5035540;28;20591;-82
2022/02/19 09:26:39;;;;;;;4.57;1.53;;;8.70;1.00;9.10;100535.00;;;;5023155;28;20459;-82
2022/02/19 09:29:08;;;;;;;6.10;1.90;;;8.60;1.00;9.10;100557.00;;;;5018093;28;20546;-81
2022/02/19 09:31:38;;;;;;;9.40;1.97;;;8.60;1.00;9.20;100539.00;;;;5017853;28;20513;-80
2022/02/19 09:34:08;;;;;;;4.60;1.50;;;8.70;1.00;9.20;100490.00;;;;5016904;28;20489;-82
2022/02/19 09:36:37;;;;;;;8.13;1.57;;;8.80;1.00;9.20;100590.00;;;;5037016;28;20446;-83
2022/02/19 09:39:06;;;;;;;6.10;1.63;;;8.80;1.00;9.20;100561.00;;;;5018984;28;20453;-84
2022/02/19 09:41:35;;;;;;;5.03;1.53;;;8.70;1.00;9.10;100551.00;;;;5015588;28;20493;-81
2022/02/19 09:44:04;;;;;;;4.77;1.90;;;8.60;1.00;9.10;100527.00;;;;5027917;28;20651;-82
2022/02/19 09:46:34;;;;;;;11.07;2.97;;;8.80;1.00;9.10;100516.00;;;;5036436;28;20452;-81
2022/02/19 09:49:04;;;;;;;2.90;1.37;;;8.70;1.00;9.20;100539.00;;;;5017995;28;20488;-80
2022/02/19 09:51:36;;;;;;;8.00;2.07;;;8.60;1.00;9.10;100519.00;;;;5003400;28;20552;-81
2022/02/19 09:54:04;;;;;;;4.90;2.10;;;8.70;1.00;9.20;100548.00;;;;5011737;28;20448;-81
2022/02/19 09:56:33;;;;;;;3.40;1.20;;;8.70;1.00;9.20;100529.00;;;;5018459;28;20453;-81
2022/02/19 09:59:03;;;;;;;5.20;1.80;;;8.90;1.00;9.20;100510.00;;;;5034507;28;20497;-84
2022/02/19 10:01:32;;;;;;;7.07;2.07;;;8.90;1.00;9.40;100563.00;;;;5026881;28;20476;-83
2022/02/19 10:04:02;;;;;;;8.20;2.10;;;9.10;1.00;9.40;100547.00;;;;5016169;28;21022;-78
2022/02/19 10:06:34;;;;;;;3.37;1.57;;;8.90;1.00;9.30;100551.00;;;;5013661;28;20474;-80
2022/02/19 10:09:15;;;;;;;5.60;1.80;;;8.80;1.00;9.40;100554.00;;;;5016875;28;21374;-81
2022/02/19 10:11:45;;;;;;;8.70;1.90;;;8.90;1.00;9.40;100574.00;;;;5017919;28;20488;-81
2022/02/19 10:14:26;;;;;;;6.10;1.60;;;8.90;1.00;9.50;100550.00;;;;5014466;28;20466;-80
2022/02/19 10:17:15;;;;;;;6.93;2.07;;;9.00;1.00;9.60;100561.00;;;;5010603;28;20466;-80
2022/02/19 10:19:53;;;;;;;6.77;2.03;;;9.10;1.00;9.70;100565.00;;;;5009064;28;20466;-82
2022/02/19 10:22:25;;;;;;;5.83;1.70;;;9.20;1.00;9.80;100565.00;;;;5013244;28;20535;-78
2022/02/19 10:24:57;;;;;;;5.60;1.80;;;9.30;1.00;9.60;100557.00;;;;5017025;28;20484;-79
2022/02/19 10:27:47;;;;;;;4.00;1.10;;;9.30;1.00;9.80;100581.00;;;;5028877;28;20445;-80
2022/02/19 10:30:19;;;;;;;8.30;2.40;;;9.30;1.00;10.00;100578.00;;;;5014019;28;21425;-81
2022/02/19 10:32:50;;;;;;;5.23;1.63;;;9.40;1.00;9.90;100586.00;;;;5009859;28;20474;-79
2022/02/19 10:35:19;;;;;;;4.83;1.67;;;9.40;1.00;10.00;100579.00;;;;5009406;28;20457;-80
2022/02/19 10:37:51;;;;;;;4.90;1.83;;;9.40;1.00;10.10;100595.00;;;;5025561;28;20539;-80
2022/02/19 10:40:33;;;;;;;5.57;2.07;;;9.50;1.00;10.20;100591.00;;;;5009986;28;20462;-79
2022/02/19 10:43:04;;;;;;;7.27;2.10;;;9.70;1.00;10.10;100589.00;;;;5023977;28;20489;-77
2022/02/19 10:45:34;;;;;;;4.40;1.30;;;9.90;1.00;10.00;100602.00;;;;5010402;28;20472;-79
2022/02/19 10:48:15;;;;;;;3.17;1.10;;;9.50;1.00;10.10;100579.00;;;;5003003;28;20523;-78
2022/02/19 10:50:48;;;;;;;5.13;1.43;;;9.50;1.00;10.10;100582.00;;;;5013141;28;20475;-78
2022/02/19 10:53:28;;;;;;;5.93;1.60;;;9.70;1.00;10.10;100601.00;;;;5010984;28;20466;-78
2022/02/19 10:55:57;;;;;;;6.10;1.60;;;9.50;1.00;10.10;100605.00;;;;5023980;28;20456;-79
2022/02/19 10:58:26;;;;;;;5.47;1.43;;;9.70;1.00;10.30;100565.00;;;;5013264;28;20672;-79
2022/02/19 11:00:55;;;;;;;5.70;1.67;;;9.70;1.00;10.40;100586.00;;;;5040883;28;20481;-78
2022/02/19 11:03:24;;;;;;;5.27;1.70;;;9.90;1.00;10.20;100597.00;;;;5035482;28;20452;-78
2022/02/19 11:05:52;;;;;;;8.60;2.10;;;9.80;1.00;10.40;100591.00;;;;5023394;28;20449;-79
2022/02/19 11:08:22;;;;;;;6.40;1.83;;;9.90;1.00;10.40;100602.00;;;;5021757;28;20475;-81
2022/02/19 11:10:53;;;;;;;4.43;1.17;;;9.90;1.00;10.50;100607.00;;;;5037650;28;20575;-81
2022/02/19 11:13:22;;;;;;;3.73;1.57;;;10.00;1.00;10.40;100597.00;;;;5036181;28;20489;-81
2022/02/19 11:15:53;;;;;;;5.37;1.50;;;9.80;1.00;10.30;100592.00;;;;5019770;28;20458;-80
2022/02/19 11:18:22;;;;;;;2.90;1.30;;;9.70;1.00;10.20;100578.00;;;;5020782;28;20449;-80
2022/02/19 11:20:55;;;;;;;10.13;2.63;;;9.80;1.00;10.30;100573.00;;;;5018037;28;20512;-80
2022/02/19 11:23:25;;;;;;;5.23;2.00;;;9.70;1.00;10.50;100576.00;;;;5020997;28;20449;-80
2022/02/19 11:25:55;;;;;;;4.13;1.60;;;9.80;1.00;10.70;100582.00;;;;5020770;28;20475;-80
2022/02/19 11:28:25;;;;;;;4.40;1.20;;;10.20;1.00;10.70;100567.00;;;;5019696;28;20460;-80
2022/02/19 11:30:57;;;;;;;6.40;1.90;;;10.30;1.00;10.80;100591.00;;;;5021959;28;20856;-80
2022/02/19 11:33:30;;;;;;;4.23;1.60;;;10.20;1.00;10.70;100558.00;;;;5017379;28;21654;-82
2022/02/19 11:36:08;;;;;;;4.53;1.40;;;10.30;1.00;10.80;100546.00;;;;5017704;28;20457;-81
2022/02/19 11:38:48;;;;;;;3.13;1.23;;;10.20;1.00;11.00;100556.00;;;;5040133;28;20448;-80